• Join FlightAware (Why Join?)
  • Login
  • US Flag 
03:15PM EDT


 

Airport Tracker/Info


-or-


 

Live Flight TrackerFlight Track Log ✈ DAL1981 ✈ 01-May-2014 ✈ KSMF - KMSP

Flight Track Log - Related Links

Times and Time Zones

All times are in EDT time to prevent confusion due to time zone crossing. See the DAL1981 flight status page for this flight to view local times or setup timezone preferences in your user account.

Time Position Orientation Groundspeed Altitude Reporting Facility
EDT Latitude Longitude Course Direction KTS MPH feet Rate Location/Type
03:54PM 38.6500 -121.5500 77° East 191 220 1,600  Level Northern Cal TRACON
03:55PM 38.6000 -121.4833 134° Southeast 268 308 3,200 2,040 Climbing Northern Cal TRACON
03:56PM 38.6000 -121.3833 90° East 283 326 5,500 2,400 Climbing Northern Cal TRACON
03:57PM 38.6067 -121.3303 81° East 285 328 7,100 2,400 Climbing Oakland Center
03:58PM 38.6167 -121.2292 83° East 286 329 9,700 1,800 Climbing Oakland Center
03:59PM 38.5933 -120.7539 77° East  Level FlightAware Approximate
03:59PM 38.6294 -121.1069 82° East 319 367 10,900  Level Oakland Center
04:00PM 38.6433 -120.9725 82° East 368 423 12,000 1,560 Climbing Oakland Center
04:01PM 38.6575 -120.8294 83° East 399 459 14,100 1,860 Climbing Oakland Center
04:02PM 38.6711 -120.6831 83° East 411 473 15,900 1,680 Climbing Oakland Center
04:03PM 38.7206 -120.5533 64° Northeast 419 482 17,600 1,440 Climbing Oakland Center
04:04PM 38.8017 -120.4417 47° Northeast 426 490 18,900 1,560 Climbing Oakland Center
04:05PM 38.9014 -120.3039 47° Northeast 438 504 20,800 1,500 Climbing Oakland Center
04:06PM 38.9869 -120.1881 46° Northeast 443 510 22,000 1,080 Climbing Oakland Center
04:07PM 39.0656 -120.0806 47° Northeast 450 518 23,100 1,020 Climbing Oakland Center
04:08PM 39.1525 -119.9614 47° Northeast 456 525 24,200 1,080 Climbing Oakland Center
04:09PM 39.2500 -119.8194 48° Northeast 461 531 25,400 900 Climbing Oakland Center
04:10PM 39.3328 -119.7017 48° Northeast 462 532 26,100 600 Climbing Oakland Center
04:11PM 39.4344 -119.5611 47° Northeast 477 549 26,700 720 Climbing Oakland Center
04:12PM 39.5200 -119.4364 48° Northeast 481 554 27,600 1,020 Climbing Oakland Center
04:13PM 39.6094 -119.3172 46° Northeast 478 550 28,800 1,020 Climbing Oakland Center
04:14PM 39.7083 -119.1767 48° Northeast 474 545 29,800 780 Climbing Oakland Center
04:15PM 39.7942 -119.0572 47° Northeast 473 544 30,500 720 Climbing Oakland Center
04:16PM 39.8911 -118.9156 48° Northeast 471 542 31,300 600 Climbing Oakland Center
04:17PM 39.9675 -118.7861 52° Northeast 476 548 31,800 480 Climbing Oakland Center
04:18PM 40.0150 -118.6342 68° East 476 548 32,300 480 Climbing Oakland Center
04:19PM 40.0706 -118.4556 68° East 475 547 32,900 480 Climbing Oakland Center
04:20PM 40.1175 -118.3017 68° East 475 547 33,400 480 Climbing Oakland Center
04:21PM 40.1639 -118.1492 68° East 475 547 33,900 600 Climbing Salt Lake Center
04:22PM 40.2178 -117.9725 68° East 473 544 34,700 480 Climbing Oakland Center
04:23PM 40.2636 -117.8217 68° East 469 540 35,000 120 Climbing Salt Lake Center
04:24PM 40.3092 -117.6719 68° East 467 537 35,000  Level Salt Lake Center
04:25PM 40.3619 -117.4972 68° East 464 534 35,000  Level Salt Lake Center
04:26PM 40.4061 -117.3478 69° East 462 532 35,000  Level Salt Lake Center
04:27PM 40.4511 -117.1983 68° East 462 532 35,000  Level Salt Lake Center
04:28PM 40.5031 -117.0214 69° East 462 532 35,000  Level Salt Lake Center
04:29PM 40.5478 -116.8681 69° East 461 531 35,000  Level Salt Lake Center
04:31PM 40.5919 -116.7164 69° East 460 529 35,000  Level Salt Lake Center
04:32PM 40.6422 -116.5406 69° East 459 528 35,000  Level Salt Lake Center
04:33PM 40.6853 -116.3906 69° East 459 528 35,000  Level Salt Lake Center
04:34PM 40.7353 -116.2147 69° East 459 528 35,000  Level Salt Lake Center
04:35PM 40.7792 -116.0650 69° East 459 528 35,000  Level Salt Lake Center
04:36PM 40.8217 -115.9144 69° East 459 528 35,000  Level Salt Lake Center
04:37PM 40.8711 -115.7397 69° East 458 527 35,000  Level Salt Lake Center
04:38PM 40.9131 -115.5883 70° East 458 527 35,000  Level Salt Lake Center
04:39PM 40.9608 -115.4136 70° East 457 526 35,000  Level Salt Lake Center
04:40PM 41.0019 -115.2636 70° East 456 525 35,000  Level Salt Lake Center
04:41PM 41.0489 -115.0911 70° East 451 519 35,000  Level Salt Lake Center
04:42PM 41.0900 -114.9442 70° East 448 516 35,000  Level Salt Lake Center
04:43PM 41.1331 -114.7764 71° East 446 513 35,000  Level Salt Lake Center
04:44PM 41.1753 -114.6225 70° East 446 513 35,000  Level Salt Lake Center
04:45PM 41.2175 -114.4697 70° East 445 512 35,000  Level Salt Lake Center
04:46PM 41.2567 -114.3158 71° East 444 511 35,000  Level Salt Lake Center
04:47PM 41.2964 -114.1617 71° East 444 511 35,000  Level Salt Lake Center
04:48PM 41.3378 -114.0081 70° East 443 510 35,000  Level Salt Lake Center
04:49PM 41.3786 -113.8528 71° East 443 510 35,000  Level Salt Lake Center
04:50PM 41.4258 -113.6639 72° East 444 511 35,000  Level Salt Lake Center
04:51PM 41.4664 -113.5083 71° East 445 512 35,000  Level Salt Lake Center
04:52PM 41.5047 -113.3514 72° East 445 512 35,000  Level Salt Lake Center
04:53PM 41.5453 -113.1939 71° East 446 513 35,000  Level Salt Lake Center
04:54PM 41.5844 -113.0375 71° East 446 513 35,000  Level Salt Lake Center
04:55PM 41.6231 -112.8803 72° East 446 513 35,000  Level Salt Lake Center
04:56PM 41.6619 -112.7244 71° East 446 513 35,000  Level Salt Lake Center
04:57PM 41.7008 -112.5661 72° East 446 513 35,000  Level Salt Lake Center
04:58PM 41.7461 -112.3775 72° East 445 512 35,000  Level Salt Lake Center
04:59PM 41.7836 -112.2214 72° East 443 510 35,000  Level Salt Lake Center
05:00PM 41.8219 -112.0642 72° East 442 509 35,000  Level Salt Lake Center
05:01PM 41.8589 -111.9072 72° East 442 509 35,000  Level Salt Lake Center
05:02PM 41.8969 -111.7489 72° East 442 509 35,000  Level Salt Lake Center
05:03PM 41.9342 -111.5903 72° East 443 510 35,000  Level Salt Lake Center
05:04PM 41.9708 -111.4322 73° East 443 510 35,000  Level Salt Lake Center
05:05PM 42.0081 -111.2733 72° East 443 510 35,000  Level Salt Lake Center
05:07PM 42.0514 -111.0825 73° East 443 510 35,000  Level Salt Lake Center
05:08PM 42.0867 -110.9311 73° East 443 510 35,000  Level Salt Lake Center
05:09PM 42.1211 -110.7794 73° East 443 510 35,000  Level Salt Lake Center
05:10PM 42.1608 -110.6039 73° East 441 507 35,000  Level Salt Lake Center
05:11PM 42.1944 -110.4528 73° East 440 506 35,000  Level Salt Lake Center
05:12PM 42.2333 -110.2772 73° East 439 505 35,000  Level Salt Lake Center
05:13PM 42.2656 -110.1272 74° East 434 499 35,000  Level Salt Lake Center
05:14PM 42.3036 -109.9525 74° East 435 501 35,000  Level Salt Lake Center
05:15PM 42.3356 -109.8042 74° East 433 498 35,000  Level Salt Lake Center
05:16PM 42.3678 -109.6556 74° East 432 497 35,000  Level Salt Lake Center
05:17PM 42.4067 -109.4811 73° East 431 496 35,000  Level Salt Lake Center
05:18PM 42.4369 -109.3325 75° East 431 496 35,000 -60 Level Salt Lake Center
05:19PM 42.4744 -109.1586 74° East 431 496 34,900  Descending Salt Lake Center
05:20PM 42.5053 -109.0086 74° East 431 496 35,000  Climbing Salt Lake Center
05:21PM 42.5375 -108.8578 74° East 431 496 35,000  Level Salt Lake Center
05:22PM 42.5728 -108.6794 75° East 436 502 35,000  Level Salt Lake Center
05:23PM 42.6031 -108.5294 75° East 435 501 35,000  Level Salt Lake Center
05:24PM 42.6394 -108.3558 74° East 432 497 35,000  Level Salt Lake Center
05:25PM 42.6686 -108.2036 75° East 432 497 35,000  Level Salt Lake Center
05:26PM 42.7036 -108.0297 75° East 431 496 35,000  Level Salt Lake Center
05:27PM 42.7328 -107.8797 75° East 427 491 35,000  Level Salt Lake Center
05:28PM 42.7681 -107.7058 74° East 427 491 35,000  Level Salt Lake Center
05:29PM 42.7975 -107.5556 75° East 428 493 35,000  Level Salt Lake Center
05:30PM 42.8250 -107.4047 76° East 428 493 35,000 -60 Level Salt Lake Center
05:31PM 42.8594 -107.2303 75° East 427 491 34,900  Descending Salt Lake Center
05:32PM 42.8872 -107.0817 76° East 426 490 35,000  Climbing Salt Lake Center
05:33PM 42.9194 -106.9078 76° East 428 493 35,000  Level Salt Lake Center
05:34PM 42.9481 -106.7561 75° East 429 494 35,000  Level Salt Lake Center
05:35PM 42.9811 -106.5803 76° East 429 494 35,000  Level Salt Lake Center
05:36PM 43.0089 -106.4306 76° East 428 493 35,000  Level Salt Lake Center
05:37PM 43.0400 -106.2553 76° East 426 490 35,000  Level Salt Lake Center
05:38PM 43.0683 -106.1042 76° East 426 490 35,000  Level Salt Lake Center
05:39PM 43.0956 -105.9514 76° East 427 491 35,000  Level Salt Lake Center
05:40PM 43.1261 -105.7742 77° East 428 493 35,000  Level Salt Lake Center
05:42PM 43.1664 -105.5464 76° East 428 493 35,000  Level Denver Center
05:43PM 43.1969 -105.3703 77° East 428 493 35,000  Level Denver Center
05:44PM 43.2231 -105.2172 77° East 428 493 35,000  Level Denver Center
05:45PM 43.2528 -105.0411 77° East 428 493 35,000  Level Denver Center
05:46PM 43.2778 -104.8900 77° East 426 490 35,000  Level Denver Center
05:47PM 43.3039 -104.7378 77° East 426 490 35,000  Level Denver Center
05:48PM 43.3336 -104.5628 77° East 425 489 35,000  Level Denver Center
05:49PM 43.3567 -104.4133 78° East 421 484 35,000  Level Denver Center
05:50PM 43.3853 -104.2381 77° East 421 484 35,000  Level Denver Center
05:51PM 43.4100 -104.0892 77° East 421 484 35,000  Level Denver Center
05:52PM 43.4375 -103.9150 78° East 420 483 35,000  Level Denver Center
05:53PM 43.4611 -103.7658 78° East 419 482 35,000  Level Denver Center
05:54PM 43.4886 -103.5917 78° East 418 481 35,000  Level Denver Center
05:55PM 43.5125 -103.4425 77° East 418 481 35,000  Level Denver Center
05:56PM 43.5383 -103.2692 78° East 417 480 35,000  Level Denver Center
05:58PM 43.5594 -103.1172 79° East 419 482 35,000  Level Denver Center
05:59PM 43.5825 -102.9675 78° East 419 482 35,000  Level Denver Center
06:00PM 43.6086 -102.7922 78° East 419 482 35,000  Level Denver Center
06:01PM 43.6306 -102.6408 79° East 419 482 35,000  Level Denver Center
06:02PM 43.6572 -102.4658 78° East 418 481 35,000  Level Denver Center
06:03PM 43.6769 -102.3158 80° East 418 481 35,000 -60 Level Denver Center
06:04PM 43.7022 -102.1419 79° East 416 479 34,900  Descending Denver Center
06:05PM 43.7231 -101.9928 79° East 416 479 35,000  Climbing Denver Center
06:06PM 43.7447 -101.8333 79° East 420 483 35,000  Level Denver Center
06:07PM 43.7711 -101.6431 79° East 420 483 35,000  Level Denver Center
06:08PM 43.7922 -101.4814 80° East 424 488 35,000  Level Denver Center
06:09PM 43.8139 -101.3200 79° East 427 491 35,000  Level Denver Center
06:10PM 43.8356 -101.1594 79° East 427 491 35,000  Level Denver Center
06:11PM 43.8569 -100.9967 80° East 431 496 35,000  Level Denver Center
06:12PM 43.8781 -100.8353 80° East 430 495 35,000  Level Denver Center
06:13PM 43.9036 -100.6389 80° East 431 496 35,000  Level Denver Center
06:14PM 43.9242 -100.4747 80° East 433 498 35,000  Level Denver Center
06:15PM 43.9522 -100.2464 80° East 433 498 35,000  Level Minneapolis Center
06:16PM 43.9736 -100.0833 80° East 433 498 35,000  Level Minneapolis Center
06:17PM 43.9931 -99.9186 81° East 433 498 35,000  Level Minneapolis Center
06:18PM 44.0131 -99.7522 80° East 435 501 35,000  Level Minneapolis Center
06:20PM 44.0331 -99.5864 80° East 435 501 35,000  Level Minneapolis Center
06:21PM 44.0528 -99.4219 80° East 435 501 35,000  Level Minneapolis Center
06:22PM 44.0744 -99.2242 81° East 435 501 35,000  Level Minneapolis Center
06:23PM 44.0936 -99.0575 81° East 436 502 35,000  Level Minneapolis Center
06:24PM 44.1131 -98.8900 81° East 436 502 35,000 -60 Level Minneapolis Center
06:25PM 44.1308 -98.7239 81° East 436 502 34,900  Descending Minneapolis Center
06:26PM 44.1508 -98.5406 81° East 442 509 35,000  Climbing Minneapolis Center
06:27PM 44.1697 -98.3711 81° East 443 510 35,000  Level Minneapolis Center
06:28PM 44.1872 -98.2014 82° East 443 510 35,000  Level Minneapolis Center
06:29PM 44.2053 -98.0306 82° East 444 511 35,000  Level Minneapolis Center
06:30PM 44.2253 -97.8261 82° East 444 511 35,000  Level Minneapolis Center
06:31PM 44.2425 -97.6564 82° East 445 512 35,000  Level Minneapolis Center
06:32PM 44.2586 -97.4864 82° East 444 511 35,000  Level Minneapolis Center
06:33PM 44.2758 -97.3158 82° East 445 512 35,000  Level Minneapolis Center
06:34PM 44.2928 -97.1444 82° East 445 512 35,000  Level Minneapolis Center
06:35PM 44.3086 -96.9717 83° East 446 513 35,000  Level Minneapolis Center
06:36PM 44.3244 -96.7994 83° East 446 513 35,000  Level Minneapolis Center
06:37PM 44.3444 -96.5917 82° East 446 513 35,000  Level Minneapolis Center
06:38PM 44.3594 -96.4186 83° East 446 513 35,000 -360 Level Minneapolis Center
06:39PM 44.3753 -96.2431 83° East 447 514 34,300 -840 Descending Minneapolis Center
06:40PM 44.3911 -96.0681 83° East 447 514 33,300 -960 Descending Minneapolis Center
06:41PM 44.4061 -95.8944 83° East 447 514 32,400 -960 Descending Minneapolis Center
06:42PM 44.4211 -95.7214 83° East 447 514 31,400 -1,020 Descending Minneapolis Center
06:43PM 44.4353 -95.5506 83° East 446 513 30,400 -960 Descending Minneapolis Center
06:44PM 44.4497 -95.3731 83° East 454 522 29,400 -1,080 Descending Minneapolis Center
06:45PM 44.4675 -95.1550 83° East 467 537 28,200 -1,200 Descending Minneapolis Center
06:46PM 44.5036 -94.9778 74° East 470 541 27,000 -2,100 Descending Minneapolis Center
06:47PM 44.5461 -94.8061 71° East 470 541 23,900 -3,180 Descending Minneapolis Center
06:48PM 44.5875 -94.6294 72° East 447 514 20,500 -3,120 Descending Minneapolis Center
06:49PM 44.6211 -94.4739 73° East 420 483 17,500 -2,940 Descending Minneapolis Center
06:51PM 44.6558 -94.3244 72° East 404 465 14,500 -2,940 Descending Minneapolis Center
06:52PM 44.6892 -94.1781 72° East 397 457 11,500 -1,680 Descending Minneapolis Center
06:53PM 44.7211 -94.0344 73° East 391 450 11,100 -240 Descending Minneapolis Center
06:54PM 44.7597 -93.8617 72° East 383 441 11,000 -60 Descending Minneapolis Center
06:55PM 44.7925 -93.7161 72° East 387 445 11,000 -180 Level Minneapolis Center
06:56PM 44.8239 -93.5742 73° East 382 440 10,700 -720 Descending Minneapolis Center
06:57PM 44.8497 -93.4533 73° East 322 371 9,600 -960 Descending Minneapolis Center
06:58PM 44.8400 -93.3528 98° East 278 320 8,800 -780 Descending Minneapolis Center
06:59PM 44.8003 -93.2686 124° Southeast 261 300 8,000 -420 Descending Minneapolis Center
07:00PM 44.7586 -93.1797 123° Southeast 260 299 8,000  Level Minneapolis Center
07:01PM 44.7183 -93.0939 123° Southeast 260 299 8,000  Level Minneapolis Center
07:02PM 44.6817 -93.0083 121° Southeast 259 298 8,000 -540 Level Minneapolis Center
07:03PM 44.6650 -92.9044 103° East 237 273 7,000 -960 Descending Minneapolis Center
07:04PM 44.7100 -92.8597 35° Northeast 202 232 6,000 -540 Descending Minneapolis Center
07:05PM 44.7431 -92.8781 338° Northwest 178 205 5,900 -540 Descending Minneapolis Center
07:06PM 44.7586 -92.9378 290° West 169 194 5,000 -780 Descending Minneapolis Center
07:07PM 44.7850 -92.9975 302° West 175 201 4,300 -960 Descending Minneapolis Center
07:08PM 44.8153 -93.0672 301° West 176 203 3,100 -1,020 Descending Minneapolis Center
07:09PM 44.8358 -93.1150 301° West 146 168 2,300 -780 Descending Minneapolis Center
07:10PM 44.8553 -93.1589 302° West 138 159 1,500 -780 Descending Minneapolis Center
07:12PM 44.8667 -93.2167 308° West  Level FlightAware Approximate
07:19PM 44.8820 -93.2218 308° West  Level Estimated